This is the latest recevied weather packets stored in our database for station/object OE3TEC-15. If no packets are shown the sender has not sent any weather packets the latest 1 day(s).
| Time | Temp. | Humidity | Pressure | Rain* | Wind** | Luminosity | Snow |
|---|---|---|---|---|---|---|---|
| 1777995879 | 27.78° C | 31% | 1004.8 hPa | 0 mm | 1.34 m/s, 131° | 130 W/m² | - |
| 1777995273 | 26.67° C | 33% | 1004.8 hPa | 0 mm | 1.79 m/s, 112° | 195 W/m² | - |
| 1777994665 | 26.67° C | 33% | 1005 hPa | 0 mm | 2.24 m/s, 106° | 179 W/m² | - |
| 1777994058 | 27.22° C | 30% | 1004.8 hPa | 0 mm | 2.24 m/s, 108° | 156 W/m² | - |
| 1777993450 | 27.78° C | 29% | 1005 hPa | 0 mm | 1.79 m/s, 113° | 249 W/m² | - |
| 1777992843 | 27.78° C | 30% | 1005.2 hPa | 0 mm | 2.24 m/s, 104° | 275 W/m² | - |
| 1777992236 | 28.33° C | 29% | 1005.2 hPa | 0 mm | 1.79 m/s, 128° | 279 W/m² | - |
| 1777991628 | 28.89° C | 28% | 1005.2 hPa | 0 mm | 1.79 m/s, 125° | 323 W/m² | - |
| 1777991021 | 28.89° C | 26% | 1005.5 hPa | 0 mm | 1.34 m/s, 129° | 347 W/m² | - |
| 1777990413 | 28.89° C | 25% | 1005.6 hPa | 0 mm | 1.34 m/s, 136° | 373 W/m² | - |
| 1777989806 | 28.33° C | 26% | 1005.8 hPa | 0 mm | 2.24 m/s, 91° | 399 W/m² | - |
| 1777988593 | 28.89° C | 26% | 1006 hPa | 0 mm | 2.24 m/s, 104° | 448 W/m² | - |
| 1777987378 | 28.89° C | 25% | 1006.1 hPa | 0 mm | 1.34 m/s, 152° | 492 W/m² | - |
| 1777986777 | 28.89° C | 26% | 1006.4 hPa | 0 mm | 1.34 m/s, 127° | 512 W/m² | - |
| 1777986172 | 27.78° C | 27% | 1006.6 hPa | 0 mm | 1.79 m/s, 104° | 535 W/m² | - |
| 1777985565 | 28.33° C | 27% | 1006.6 hPa | 0 mm | 1.34 m/s, 129° | 548 W/m² | - |
| 1777984958 | 28.33° C | 28% | 1006.9 hPa | 0 mm | 1.34 m/s, 112° | 572 W/m² | - |
| 1777984350 | 27.22° C | 30% | 1007 hPa | 0 mm | 0.89 m/s, 131° | 579 W/m² | - |
| 1777983743 | 26.67° C | 34% | 1007.3 hPa | 0 mm | 1.79 m/s, 91° | 598 W/m² | - |
| 1777983137 | 26.11° C | 35% | 1007.5 hPa | 0 mm | 1.79 m/s, 113° | 615 W/m² | - |
| 1777982530 | 26.11° C | 36% | 1007.7 hPa | 0 mm | 1.34 m/s, 126° | 627 W/m² | - |
| 1777981922 | 25.56° C | 37% | 1008 hPa | 0 mm | 1.79 m/s, 129° | 639 W/m² | - |
| 1777981315 | 25.56° C | 36% | 1008 hPa | 0 mm | 1.79 m/s, 118° | 650 W/m² | - |
| 1777980708 | 25° C | 38% | 1008.2 hPa | 0 mm | 2.24 m/s, 104° | 599 W/m² | - |
| 1777980100 | 25° C | 37% | 1008.3 hPa | 0 mm | 1.79 m/s, 100° | 670 W/m² | - |
* Rain latest hour (hover to see other rain measurements)
** Current wind speed in m/s (hover to see current wind gust speed)